Ganges, Canada
Current Conditions -  °F | °C
As of 8:00 PM on Wednesday 28 Jan 2015 (Local Time) from CYYJ Reporting Station
Clear Clear  
Wind Chill: 35°   Ceiling: Unl
Heat Index: 39°   Visibility: 30mi
Dew Point: 37°   Wind: 6mph
Humidity: 93%   Direction: 240°WSW
Pressure: 30.39"   Gusts: NA
Location:  48.85°N, 123.52°W
Report Text: CYYJ 290400Z 24005KT 30SM SKC 04/03 A3039 RMK SLP290
Loading
Personal Weather Stations






























Interactive Weather Map New forecast layout! Learn more

10-Day Weather Forecast

Advertisements
Track Severe Weather on mobile